Terminal Aerodrome Forecast
Issued by NWS Pueblo, CO

Home | Current Version | Previous Version | Text Only | Print | Product List | Glossary On
Versions: 1 2 3 4 5 6 7 8 9 10 11 12 13 14 15 16 17 18 19 20 21 22 23 24 25
000
FTUS45 KPUB 261720
TAFCOS
TAF
KCOS 261720Z 2618/2718 VRB04KT P6SM FEW030 SCT050
     FM261900 16007KT P6SM SCT050
     FM262200 13012KT P6SM VCTS SCT060CB BKN140
     FM270300 10006KT P6SM FEW060 SCT250
     FM271000 07006KT P6SM SCT190
     FM271500 18010KT P6SM SCT160=

USA.gov is the U.S. government's official web portal to all federal, state and local government web resources and services.